Time;durP1;ratioP1;P1;durP2;ratioP2;P2;SDS_P1;SDS_P2;PMS_P1;PMS_P2;Temp;Humidity;BMP_temperature;BMP_pressure;BME280_temperature;BME280_humidity;BME280_pressure;Samples;Min_cycle;Max_cycle;Signal;HPM_P1;HPM_P2
2022/10/22 00:00:06;;;;;;;17.88;10.43;;;;;;;;;;5096238;28;20506;-65
2022/10/22 00:02:32;;;;;;;17.42;11.98;;;;;;;;;;5063025;28;20055;-65
2022/10/22 00:04:58;;;;;;;15.52;10.50;;;;;;;;;;5058197;28;20439;-65
2022/10/22 00:07:25;;;;;;;23.48;11.00;;;;;;;;;;5063930;28;20044;-65
2022/10/22 00:09:51;;;;;;;20.90;10.40;;;;;;;;;;5064916;28;20387;-65
2022/10/22 00:12:17;;;;;;;16.08;10.10;;;;;;;;;;5061422;28;20045;-65
2022/10/22 00:14:43;;;;;;;20.48;10.55;;;;;;;;;;5063970;28;20123;-65
2022/10/22 00:17:10;;;;;;;21.17;11.57;;;;;;;;;;5063412;28;20147;-65
2022/10/22 00:19:36;;;;;;;17.65;10.13;;;;;;;;;;5091767;27;20048;-65
2022/10/22 00:22:04;;;;;;;21.25;10.43;;;;;;;;;;5063886;28;20090;-65
2022/10/22 00:24:31;;;;;;;24.90;11.25;;;;;;;;;;5065371;28;20059;-65
2022/10/22 00:26:57;;;;;;;22.90;11.85;;;;;;;;;;5062370;28;20049;-65
2022/10/22 00:29:23;;;;;;;24.83;12.65;;;;;;;;;;5060695;28;20047;-65
2022/10/22 00:31:50;;;;;;;21.48;11.85;;;;;;;;;;5063471;28;20110;-65
2022/10/22 00:34:18;;;;;;;21.58;11.77;;;;;;;;;;5061729;28;20045;-65
2022/10/22 00:36:45;;;;;;;20.02;12.38;;;;;;;;;;5093267;27;20048;-65
2022/10/22 00:39:12;;;;;;;23.63;13.38;;;;;;;;;;5063355;28;20033;-65
2022/10/22 00:41:38;;;;;;;21.02;13.60;;;;;;;;;;5060129;28;20059;-65
2022/10/22 00:44:05;;;;;;;21.80;13.90;;;;;;;;;;5061639;28;20043;-65
2022/10/22 00:46:32;;;;;;;20.13;12.60;;;;;;;;;;5060314;28;20056;-65
2022/10/22 00:49:00;;;;;;;18.30;12.75;;;;;;;;;;5060319;28;20130;-65
2022/10/22 00:51:28;;;;;;;22.92;12.98;;;;;;;;;;5092964;27;20049;-65
2022/10/22 00:53:59;;;;;;;19.83;12.00;;;;;;;;;;5062271;28;20143;-65
2022/10/22 00:56:26;;;;;;;18.23;11.60;;;;;;;;;;5062116;28;20051;-65
2022/10/22 00:58:55;;;;;;;24.30;12.25;;;;;;;;;;5062795;28;20045;-65
2022/10/22 01:01:23;;;;;;;21.90;12.55;;;;;;;;;;5062594;28;20052;-65
2022/10/22 01:03:50;;;;;;;23.13;13.07;;;;;;;;;;5060655;28;20480;-65
2022/10/22 01:06:27;;;;;;;22.55;12.65;;;;;;;;;;5061901;28;20372;-65
2022/10/22 01:09:03;;;;;;;25.67;13.45;;;;;;;;;;5063953;28;20040;-65
2022/10/22 01:11:52;;;;;;;17.83;11.93;;;;;;;;;;5063979;28;20091;-65
2022/10/22 01:14:18;;;;;;;22.08;12.43;;;;;;;;;;5060955;28;20040;-65
2022/10/22 01:16:57;;;;;;;24.67;12.57;;;;;;;;;;5060261;28;20036;-65
2022/10/22 01:19:40;;;;;;;19.23;13.43;;;;;;;;;;5063122;28;20041;-65
2022/10/22 01:22:12;;;;;;;26.17;14.32;;;;;;;;;;5060384;28;20120;-65
2022/10/22 01:24:42;;;;;;;21.17;13.23;;;;;;;;;;5091365;28;20102;-65
2022/10/22 01:27:09;;;;;;;24.60;13.90;;;;;;;;;;5060302;28;20036;-65
2022/10/22 01:29:38;;;;;;;30.55;16.00;;;;;;;;;;5055563;28;20033;-65
2022/10/22 01:32:07;;;;;;;30.67;15.35;;;;;;;;;;5057187;28;20048;-65
2022/10/22 01:34:34;;;;;;;24.60;14.25;;;;;;;;;;5058444;28;21406;-65
2022/10/22 01:37:01;;;;;;;25.80;13.95;;;;;;;;;;5060495;28;20407;-65
2022/10/22 01:39:27;;;;;;;24.50;13.65;;;;;;;;;;5062203;28;20040;-65
2022/10/22 01:41:54;;;;;;;24.40;13.63;;;;;;;;;;5058318;28;20045;-65
2022/10/22 01:44:25;;;;;;;27.23;15.60;;;;;;;;;;5061808;28;20081;-65
2022/10/22 01:46:54;;;;;;;22.90;14.07;;;;;;;;;;5062900;28;20037;-65
2022/10/22 01:49:27;;;;;;;24.80;14.77;;;;;;;;;;5060665;28;20131;-65
2022/10/22 01:52:01;;;;;;;25.70;14.23;;;;;;;;;;5060908;28;20049;-65
2022/10/22 01:54:33;;;;;;;22.80;13.82;;;;;;;;;;5061552;28;20076;-65
2022/10/22 01:57:09;;;;;;;28.13;14.25;;;;;;;;;;5060516;28;20055;-65
2022/10/22 01:59:48;;;;;;;30.95;15.48;;;;;;;;;;5059321;28;20044;-65
2022/10/22 02:02:23;;;;;;;24.70;14.93;;;;;;;;;;5062288;28;20036;-65
2022/10/22 02:04:52;;;;;;;24.60;14.23;;;;;;;;;;5057808;28;20033;-65
2022/10/22 02:07:20;;;;;;;24.58;14.75;;;;;;;;;;5093198;28;20052;-65
2022/10/22 02:09:47;;;;;;;22.90;14.02;;;;;;;;;;5061541;28;20037;-65
2022/10/22 02:12:14;;;;;;;29.50;13.60;;;;;;;;;;5060488;28;20052;-65
2022/10/22 02:14:42;;;;;;;24.52;13.95;;;;;;;;;;5064092;28;20101;-65
2022/10/22 02:17:12;;;;;;;23.63;14.52;;;;;;;;;;5063372;28;20069;-65
2022/10/22 02:19:41;;;;;;;28.98;13.75;;;;;;;;;;5061484;28;20032;-65
2022/10/22 02:22:08;;;;;;;25.35;13.13;;;;;;;;;;5061961;28;20391;-65
2022/10/22 02:24:34;;;;;;;24.77;13.85;;;;;;;;;;5090100;28;20560;-65
2022/10/22 02:27:15;;;;;;;23.70;12.90;;;;;;;;;;5058406;28;20097;-65
2022/10/22 02:29:45;;;;;;;23.88;13.23;;;;;;;;;;5061787;28;20102;-65
2022/10/22 02:32:16;;;;;;;18.27;12.30;;;;;;;;;;5057950;28;20079;-65
2022/10/22 02:34:42;;;;;;;18.33;12.15;;;;;;;;;;5057608;28;20400;-65
2022/10/22 02:37:08;;;;;;;20.23;12.27;;;;;;;;;;5060041;28;20079;-65
2022/10/22 02:39:35;;;;;;;19.80;12.27;;;;;;;;;;5060356;28;20032;-65
2022/10/22 02:42:02;;;;;;;21.17;12.13;;;;;;;;;;5059850;28;20494;-65
2022/10/22 02:44:28;;;;;;;24.27;12.27;;;;;;;;;;5062815;28;20387;-65
2022/10/22 02:46:55;;;;;;;30.63;13.38;;;;;;;;;;5078378;28;20045;-65
2022/10/22 02:49:21;;;;;;;25.08;12.32;;;;;;;;;;5063548;28;20092;-65
2022/10/22 02:51:47;;;;;;;22.13;12.13;;;;;;;;;;5092482;28;20064;-65
2022/10/22 02:54:13;;;;;;;22.33;12.48;;;;;;;;;;5061773;28;20566;-65
2022/10/22 02:56:39;;;;;;;18.50;12.00;;;;;;;;;;5062219;28;20036;-65
2022/10/22 02:59:05;;;;;;;25.13;12.30;;;;;;;;;;5061568;28;20379;-65
2022/10/22 03:01:31;;;;;;;21.67;12.45;;;;;;;;;;5061820;28;20032;-65
2022/10/22 03:03:58;;;;;;;25.15;11.13;;;;;;;;;;5058879;28;20074;-65
2022/10/22 03:06:24;;;;;;;25.30;12.43;;;;;;;;;;5061886;28;20541;-65
2022/10/22 03:08:50;;;;;;;23.77;11.80;;;;;;;;;;5063752;28;20119;-66
2022/10/22 03:11:16;;;;;;;21.60;11.98;;;;;;;;;;5064532;28;20059;-65
2022/10/22 03:13:42;;;;;;;24.95;11.38;;;;;;;;;;5061794;28;20062;-65
2022/10/22 03:16:08;;;;;;;19.60;11.20;;;;;;;;;;5063917;28;20756;-65
2022/10/22 03:18:35;;;;;;;22.92;10.50;;;;;;;;;;5061568;28;20448;-65
2022/10/22 03:21:04;;;;;;;19.23;11.70;;;;;;;;;;5061412;28;20542;-65
2022/10/22 03:23:31;;;;;;;20.63;10.23;;;;;;;;;;5061952;28;20041;-65
2022/10/22 03:25:58;;;;;;;21.48;10.15;;;;;;;;;;5096523;28;20044;-65
2022/10/22 03:28:25;;;;;;;23.15;10.73;;;;;;;;;;5059539;28;20119;-65
2022/10/22 03:30:52;;;;;;;21.95;10.25;;;;;;;;;;5060705;28;20033;-65
2022/10/22 03:33:18;;;;;;;17.48;10.80;;;;;;;;;;5056427;28;20075;-65
2022/10/22 03:35:46;;;;;;;18.23;10.57;;;;;;;;;;5064346;28;20044;-65
2022/10/22 03:38:12;;;;;;;20.25;10.27;;;;;;;;;;5061297;28;20060;-65
2022/10/22 03:40:39;;;;;;;22.27;10.48;;;;;;;;;;5064316;28;20058;-65
2022/10/22 03:43:05;;;;;;;19.10;10.55;;;;;;;;;;5063121;28;20041;-65
2022/10/22 03:45:31;;;;;;;18.77;10.52;;;;;;;;;;5065117;28;20044;-64
2022/10/22 03:47:57;;;;;;;23.27;10.13;;;;;;;;;;5060789;28;20514;-65
2022/10/22 03:50:24;;;;;;;20.45;10.18;;;;;;;;;;5060667;28;20041;-65
2022/10/22 03:52:50;;;;;;;16.60;9.02;;;;;;;;;;5063733;28;20044;-64
2022/10/22 03:55:16;;;;;;;19.55;9.05;;;;;;;;;;5063946;28;20040;-65
2022/10/22 03:57:42;;;;;;;22.00;9.43;;;;;;;;;;5059774;28;20072;-64
2022/10/22 04:00:09;;;;;;;15.95;8.68;;;;;;;;;;5060533;28;21205;-64
2022/10/22 04:02:35;;;;;;;24.02;8.68;;;;;;;;;;5093969;27;20052;-64
2022/10/22 04:05:01;;;;;;;19.27;8.30;;;;;;;;;;5095940;28;21303;-65
2022/10/22 04:07:27;;;;;;;22.98;8.18;;;;;;;;;;5062007;28;20064;-65
2022/10/22 04:09:53;;;;;;;19.95;8.43;;;;;;;;;;5063070;28;20044;-65
2022/10/22 04:12:20;;;;;;;19.85;8.90;;;;;;;;;;5089486;28;20182;-64
2022/10/22 04:14:46;;;;;;;18.13;8.10;;;;;;;;;;5066189;28;20054;-65
2022/10/22 04:17:12;;;;;;;18.17;8.45;;;;;;;;;;5066023;28;20047;-64
2022/10/22 04:19:38;;;;;;;18.10;7.45;;;;;;;;;;5060707;28;20063;-65
2022/10/22 04:22:04;;;;;;;17.33;8.50;;;;;;;;;;5063490;28;20047;-64
2022/10/22 04:24:31;;;;;;;22.67;8.85;;;;;;;;;;5064925;28;20039;-65
2022/10/22 04:26:58;;;;;;;18.17;8.45;;;;;;;;;;5060715;28;20047;-65
2022/10/22 04:29:24;;;;;;;26.55;7.82;;;;;;;;;;5062178;28;20037;-65
2022/10/22 04:31:50;;;;;;;19.85;8.38;;;;;;;;;;5065823;28;20052;-65
2022/10/22 04:34:16;;;;;;;13.95;7.35;;;;;;;;;;5056375;28;20044;-65
2022/10/22 04:36:43;;;;;;;19.40;7.78;;;;;;;;;;5090808;27;20032;-65
2022/10/22 04:39:09;;;;;;;16.38;8.10;;;;;;;;;;5092126;28;20091;-65
2022/10/22 04:41:36;;;;;;;15.55;8.68;;;;;;;;;;5094142;27;20510;-65
2022/10/22 04:44:03;;;;;;;21.92;9.50;;;;;;;;;;5061287;28;20036;-65
2022/10/22 04:46:30;;;;;;;25.92;8.55;;;;;;;;;;5060647;28;20033;-65
2022/10/22 04:48:57;;;;;;;35.15;9.60;;;;;;;;;;5064070;28;20036;-64
2022/10/22 04:51:24;;;;;;;22.27;8.40;;;;;;;;;;5060068;28;20057;-64
2022/10/22 04:53:50;;;;;;;26.20;8.98;;;;;;;;;;5060889;28;20086;-65
2022/10/22 04:56:19;;;;;;;17.13;8.73;;;;;;;;;;5062579;28;20060;-64
2022/10/22 04:58:46;;;;;;;18.02;8.18;;;;;;;;;;5062820;28;20040;-65
2022/10/22 05:01:18;;;;;;;13.88;8.10;;;;;;;;;;5094182;28;20060;-65
2022/10/22 05:03:44;;;;;;;14.98;7.47;;;;;;;;;;5062901;28;20062;-65
2022/10/22 05:06:10;;;;;;;18.20;8.02;;;;;;;;;;5059323;28;20546;-65
2022/10/22 05:08:37;;;;;;;12.93;8.25;;;;;;;;;;5061990;28;20139;-64
2022/10/22 05:11:11;;;;;;;24.35;8.70;;;;;;;;;;5064141;28;20050;-64
2022/10/22 05:13:37;;;;;;;19.73;7.68;;;;;;;;;;5063350;28;20048;-64
2022/10/22 05:16:04;;;;;;;22.75;7.53;;;;;;;;;;5058740;28;20070;-64
2022/10/22 05:18:30;;;;;;;20.35;8.48;;;;;;;;;;5056830;28;20127;-65
2022/10/22 05:20:56;;;;;;;22.67;9.18;;;;;;;;;;5056073;28;20128;-64
2022/10/22 05:23:22;;;;;;;16.30;8.43;;;;;;;;;;5092656;27;20085;-65
2022/10/22 05:25:48;;;;;;;19.45;9.30;;;;;;;;;;5058063;28;20135;-64
2022/10/22 05:28:14;;;;;;;29.50;8.80;;;;;;;;;;5058373;28;20076;-64
2022/10/22 05:30:40;;;;;;;14.65;7.88;;;;;;;;;;5094141;27;20056;-64
2022/10/22 05:33:07;;;;;;;21.38;9.07;;;;;;;;;;5039844;28;20048;-64
2022/10/22 05:35:33;;;;;;;15.88;7.43;;;;;;;;;;5092139;28;20044;-65
2022/10/22 05:37:59;;;;;;;16.15;7.40;;;;;;;;;;5058449;28;20047;-65
2022/10/22 05:40:25;;;;;;;25.15;7.90;;;;;;;;;;5055139;28;20075;-64
2022/10/22 05:42:51;;;;;;;21.80;7.97;;;;;;;;;;5053336;28;20048;-64
2022/10/22 05:45:17;;;;;;;20.33;7.72;;;;;;;;;;5054578;28;21362;-65
2022/10/22 05:47:43;;;;;;;16.52;7.53;;;;;;;;;;5053654;28;20503;-65
2022/10/22 05:50:10;;;;;;;14.25;7.00;;;;;;;;;;5050808;28;20059;-65
2022/10/22 05:52:36;;;;;;;14.98;8.00;;;;;;;;;;5054406;28;20445;-65
2022/10/22 05:55:02;;;;;;;17.55;7.22;;;;;;;;;;5058358;28;20040;-65
2022/10/22 05:57:28;;;;;;;18.48;7.80;;;;;;;;;;5057857;28;20048;-65
2022/10/22 05:59:54;;;;;;;19.38;7.38;;;;;;;;;;5058366;28;20037;-65
2022/10/22 06:02:20;;;;;;;20.73;8.57;;;;;;;;;;5088003;28;20056;-64
2022/10/22 06:04:47;;;;;;;20.60;8.18;;;;;;;;;;5089721;28;20093;-64
2022/10/22 06:07:14;;;;;;;16.95;8.48;;;;;;;;;;5053647;28;20047;-65
2022/10/22 06:09:40;;;;;;;17.27;8.68;;;;;;;;;;5056815;28;20063;-64
2022/10/22 06:12:09;;;;;;;20.10;8.55;;;;;;;;;;5057096;28;20080;-64
2022/10/22 06:14:36;;;;;;;16.25;8.18;;;;;;;;;;5054045;28;20052;-64
2022/10/22 06:17:02;;;;;;;18.17;8.32;;;;;;;;;;5055038;28;20036;-65
2022/10/22 06:19:30;;;;;;;15.15;7.20;;;;;;;;;;5052928;28;20040;-65
2022/10/22 06:21:56;;;;;;;18.77;8.52;;;;;;;;;;5086591;28;20754;-64
2022/10/22 06:24:22;;;;;;;19.63;8.82;;;;;;;;;;5054416;28;20079;-65
2022/10/22 06:26:50;;;;;;;13.55;7.65;;;;;;;;;;5049618;28;20059;-64
2022/10/22 06:29:16;;;;;;;18.75;7.97;;;;;;;;;;5056647;28;20044;-64
2022/10/22 06:31:42;;;;;;;20.80;8.23;;;;;;;;;;5054926;28;20095;-64
2022/10/22 06:34:11;;;;;;;18.23;8.00;;;;;;;;;;5057345;28;20029;-64
2022/10/22 06:36:37;;;;;;;18.08;8.18;;;;;;;;;;5055203;28;20052;-64
2022/10/22 06:39:04;;;;;;;19.02;8.18;;;;;;;;;;5054706;28;20055;-65
2022/10/22 06:41:30;;;;;;;16.27;8.15;;;;;;;;;;5058380;28;20044;-65
2022/10/22 06:43:56;;;;;;;22.30;8.63;;;;;;;;;;5058551;28;20053;-65
2022/10/22 06:46:23;;;;;;;18.70;8.60;;;;;;;;;;5058157;28;20487;-65
2022/10/22 06:48:51;;;;;;;21.52;8.38;;;;;;;;;;5057793;28;20051;-65
2022/10/22 06:51:18;;;;;;;23.77;7.80;;;;;;;;;;5088507;28;20052;-64
2022/10/22 06:53:44;;;;;;;23.45;8.30;;;;;;;;;;5086506;28;20045;-65
2022/10/22 06:56:12;;;;;;;19.83;8.43;;;;;;;;;;5054901;28;20056;-65
2022/10/22 06:58:39;;;;;;;25.20;7.68;;;;;;;;;;5057068;28;20122;-65
2022/10/22 07:01:07;;;;;;;19.20;8.30;;;;;;;;;;5055367;28;20127;-64
2022/10/22 07:03:33;;;;;;;20.45;8.27;;;;;;;;;;5060466;28;20040;-64
2022/10/22 07:06:02;;;;;;;25.27;7.80;;;;;;;;;;5057312;28;20044;-65
2022/10/22 07:08:29;;;;;;;24.67;8.48;;;;;;;;;;5059658;28;20048;-65
2022/10/22 07:10:57;;;;;;;19.73;9.10;;;;;;;;;;5063407;28;20050;-65
2022/10/22 07:13:23;;;;;;;17.95;7.80;;;;;;;;;;5096858;28;20051;-65
2022/10/22 07:15:53;;;;;;;17.10;9.18;;;;;;;;;;5063403;28;20124;-65
2022/10/22 07:18:20;;;;;;;20.67;8.70;;;;;;;;;;5090912;28;20420;-64
2022/10/22 07:20:46;;;;;;;18.20;8.50;;;;;;;;;;5064494;28;20130;-64
2022/10/22 07:23:13;;;;;;;20.58;8.13;;;;;;;;;;5061561;28;20055;-65
2022/10/22 07:25:40;;;;;;;16.42;8.27;;;;;;;;;;5061078;28;20066;-64
2022/10/22 07:28:06;;;;;;;18.55;8.30;;;;;;;;;;5050597;28;20467;-64
2022/10/22 07:30:32;;;;;;;18.73;8.45;;;;;;;;;;5040289;28;20614;-64
2022/10/22 07:32:58;;;;;;;17.13;8.05;;;;;;;;;;5037710;28;20048;-65
2022/10/22 07:35:25;;;;;;;14.20;7.90;;;;;;;;;;5041837;28;20053;-64
2022/10/22 07:37:51;;;;;;;17.90;8.38;;;;;;;;;;5056625;28;20048;-65
2022/10/22 07:40:17;;;;;;;18.92;8.27;;;;;;;;;;5091648;28;20048;-64
2022/10/22 07:42:43;;;;;;;17.13;7.97;;;;;;;;;;5058928;28;20041;-65
2022/10/22 07:45:10;;;;;;;25.88;9.45;;;;;;;;;;5061659;28;20123;-64
2022/10/22 07:47:36;;;;;;;20.17;8.10;;;;;;;;;;5052471;28;20109;-65
2022/10/22 07:50:03;;;;;;;18.33;7.68;;;;;;;;;;5053131;28;20404;-65
2022/10/22 07:52:29;;;;;;;16.05;8.18;;;;;;;;;;5051819;28;20136;-67
2022/10/22 07:54:55;;;;;;;22.02;8.32;;;;;;;;;;5062758;28;20040;-66
2022/10/22 07:57:21;;;;;;;19.02;8.85;;;;;;;;;;5059953;28;20049;-65
2022/10/22 07:59:47;;;;;;;19.48;9.73;;;;;;;;;;5057411;28;20492;-65
2022/10/22 08:02:13;;;;;;;22.90;8.63;;;;;;;;;;5058043;28;20433;-65
2022/10/22 08:04:40;;;;;;;18.45;8.45;;;;;;;;;;5057625;28;20680;-65
2022/10/22 08:07:06;;;;;;;21.88;8.15;;;;;;;;;;5059988;28;20733;-65
2022/10/22 08:09:32;;;;;;;20.25;8.50;;;;;;;;;;5059373;28;20041;-65
2022/10/22 08:11:58;;;;;;;23.15;9.02;;;;;;;;;;5056557;28;20063;-65
2022/10/22 08:14:24;;;;;;;28.23;8.52;;;;;;;;;;5058482;28;20041;-65
2022/10/22 08:16:51;;;;;;;17.73;8.13;;;;;;;;;;5059721;28;20076;-65
2022/10/22 08:19:20;;;;;;;19.15;8.85;;;;;;;;;;5055835;28;20542;-65
2022/10/22 08:21:46;;;;;;;18.42;7.70;;;;;;;;;;5064353;28;20045;-65
2022/10/22 08:24:13;;;;;;;22.45;8.13;;;;;;;;;;5060857;28;20044;-65
2022/10/22 08:26:39;;;;;;;22.13;7.10;;;;;;;;;;5059270;28;20131;-64
2022/10/22 08:29:05;;;;;;;15.93;7.13;;;;;;;;;;5091689;28;20044;-64
2022/10/22 08:31:31;;;;;;;17.60;8.00;;;;;;;;;;5059302;28;20112;-65
2022/10/22 08:33:58;;;;;;;28.10;7.50;;;;;;;;;;5093738;27;20051;-64
2022/10/22 08:36:24;;;;;;;18.65;7.05;;;;;;;;;;5059791;28;20037;-64
2022/10/22 08:38:50;;;;;;;20.00;7.75;;;;;;;;;;5093431;27;20074;-65
2022/10/22 08:41:17;;;;;;;17.10;6.68;;;;;;;;;;5063972;28;20048;-65
2022/10/22 08:43:45;;;;;;;15.30;6.13;;;;;;;;;;5093930;28;20048;-64
2022/10/22 08:46:17;;;;;;;19.50;5.97;;;;;;;;;;5060291;28;20083;-64
2022/10/22 08:48:49;;;;;;;21.67;6.50;;;;;;;;;;5062561;28;20041;-64
2022/10/22 08:51:16;;;;;;;17.23;5.55;;;;;;;;;;5063779;28;20048;-65
2022/10/22 08:53:49;;;;;;;17.63;6.05;;;;;;;;;;5060031;28;20051;-64
2022/10/22 08:56:15;;;;;;;15.43;6.03;;;;;;;;;;5062076;28;20063;-64
2022/10/22 08:58:44;;;;;;;21.83;6.13;;;;;;;;;;5092475;28;20499;-64
2022/10/22 09:01:15;;;;;;;21.17;7.20;;;;;;;;;;5058844;28;20502;-65
2022/10/22 09:03:54;;;;;;;18.85;6.32;;;;;;;;;;5061390;28;20056;-64
2022/10/22 09:06:23;;;;;;;15.20;5.40;;;;;;;;;;5057487;28;20041;-64
2022/10/22 09:08:50;;;;;;;12.75;4.85;;;;;;;;;;5059660;28;21207;-65
2022/10/22 09:11:26;;;;;;;16.05;5.57;;;;;;;;;;5060485;28;20049;-65
2022/10/22 09:13:53;;;;;;;16.00;5.63;;;;;;;;;;5062569;28;20137;-65
2022/10/22 09:16:20;;;;;;;21.17;6.53;;;;;;;;;;5060927;28;20341;-65
2022/10/22 09:18:51;;;;;;;15.50;4.57;;;;;;;;;;5064616;28;20361;-65
2022/10/22 09:21:23;;;;;;;17.45;4.78;;;;;;;;;;5062250;28;20055;-65
2022/10/22 09:23:55;;;;;;;14.77;4.55;;;;;;;;;;5063529;28;20048;-65
2022/10/22 09:26:21;;;;;;;18.00;4.15;;;;;;;;;;5062736;28;20048;-65
2022/10/22 09:28:50;;;;;;;15.95;4.78;;;;;;;;;;5059917;28;20518;-65
2022/10/22 09:31:16;;;;;;;14.00;4.55;;;;;;;;;;5060570;28;20059;-65
2022/10/22 09:33:43;;;;;;;14.38;4.35;;;;;;;;;;5062542;28;20509;-65
2022/10/22 09:36:13;;;;;;;19.45;5.03;;;;;;;;;;5094736;28;20123;-65
2022/10/22 09:38:44;;;;;;;16.10;4.28;;;;;;;;;;5063533;28;20041;-65
2022/10/22 09:41:11;;;;;;;13.32;3.88;;;;;;;;;;5056621;28;20097;-65
2022/10/22 09:43:37;;;;;;;15.80;4.55;;;;;;;;;;5059244;28;20142;-65
2022/10/22 09:46:05;;;;;;;16.35;4.50;;;;;;;;;;5060943;28;20373;-65
2022/10/22 09:48:33;;;;;;;20.30;5.20;;;;;;;;;;5062319;28;20513;-65
2022/10/22 09:51:05;;;;;;;18.75;4.50;;;;;;;;;;5062571;28;20048;-64
2022/10/22 09:53:36;;;;;;;12.48;3.75;;;;;;;;;;5090848;28;20052;-65
2022/10/22 09:56:06;;;;;;;18.58;5.45;;;;;;;;;;5059597;28;20112;-65
2022/10/22 09:58:41;;;;;;;19.90;3.88;;;;;;;;;;5060019;28;20044;-65
2022/10/22 10:01:07;;;;;;;19.05;4.80;;;;;;;;;;5061472;28;20036;-65
2022/10/22 10:03:33;;;;;;;14.88;3.95;;;;;;;;;;5090861;27;20032;-65
2022/10/22 10:06:01;;;;;;;15.73;4.07;;;;;;;;;;5061249;28;20055;-64
2022/10/22 10:08:27;;;;;;;21.58;5.38;;;;;;;;;;5059197;28;20048;-64
2022/10/22 10:10:57;;;;;;;13.45;4.97;;;;;;;;;;5060649;28;20074;-65
2022/10/22 10:13:31;;;;;;;15.90;5.15;;;;;;;;;;5059266;28;20656;-64
2022/10/22 10:16:03;;;;;;;21.70;6.18;;;;;;;;;;5060551;28;20076;-64
2022/10/22 10:18:30;;;;;;;14.48;4.13;;;;;;;;;;5061273;28;20105;-65
2022/10/22 10:21:09;;;;;;;24.05;5.45;;;;;;;;;;5075956;28;20179;-65
2022/10/22 10:23:45;;;;;;;15.35;5.03;;;;;;;;;;5091061;28;20071;-65
2022/10/22 10:26:15;;;;;;;19.80;4.95;;;;;;;;;;5057914;28;20059;-65
2022/10/22 10:28:49;;;;;;;17.17;5.18;;;;;;;;;;5054959;28;20052;-64
2022/10/22 10:31:24;;;;;;;16.08;4.90;;;;;;;;;;5091819;28;20044;-65
2022/10/22 10:33:58;;;;;;;14.40;4.70;;;;;;;;;;5060682;28;20075;-72
2022/10/22 10:36:24;;;;;;;13.48;4.93;;;;;;;;;;5091076;28;20064;-66
2022/10/22 10:38:53;;;;;;;16.60;4.80;;;;;;;;;;5058948;28;20048;-66
2022/10/22 10:41:22;;;;;;;11.73;4.57;;;;;;;;;;5059254;28;20045;-66
2022/10/22 10:43:52;;;;;;;16.67;5.00;;;;;;;;;;5061083;28;20048;-66
2022/10/22 10:46:25;;;;;;;14.88;5.88;;;;;;;;;;5059434;28;20052;-66
2022/10/22 10:48:59;;;;;;;14.57;5.32;;;;;;;;;;5062660;28;20503;-66
2022/10/22 10:51:27;;;;;;;20.27;5.82;;;;;;;;;;5060291;28;20349;-66
2022/10/22 10:53:57;;;;;;;19.10;6.65;;;;;;;;;;5064406;28;20070;-66
2022/10/22 10:56:39;;;;;;;29.90;8.93;;;;;;;;;;5095187;28;20442;-66
2022/10/22 10:59:07;;;;;;;23.95;8.48;;;;;;;;;;5096489;28;20114;-66
2022/10/22 11:01:42;;;;;;;26.95;9.25;;;;;;;;;;5062722;28;20163;-65
2022/10/22 11:04:20;;;;;;;24.50;10.00;;;;;;;;;;5086713;28;20036;-66
2022/10/22 11:06:46;;;;;;;33.90;11.05;;;;;;;;;;5062385;28;20075;-66
2022/10/22 11:09:14;;;;;;;31.23;10.73;;;;;;;;;;5059474;28;20047;-66
2022/10/22 11:11:47;;;;;;;27.13;11.00;;;;;;;;;;5059795;28;20056;-65
2022/10/22 11:14:17;;;;;;;27.02;11.00;;;;;;;;;;5056661;28;20044;-66
2022/10/22 11:16:47;;;;;;;25.02;12.35;;;;;;;;;;5056313;28;20056;-65
2022/10/22 11:19:20;;;;;;;25.23;11.00;;;;;;;;;;5057014;28;20036;-65
2022/10/22 11:21:59;;;;;;;24.65;11.40;;;;;;;;;;5056073;28;20364;-66
2022/10/22 11:24:28;;;;;;;37.75;14.77;;;;;;;;;;5057402;28;20472;-65
2022/10/22 11:26:55;;;;;;;28.95;13.20;;;;;;;;;;5090257;28;20076;-65
2022/10/22 11:29:22;;;;;;;29.77;12.23;;;;;;;;;;5062456;28;21248;-66
2022/10/22 11:31:49;;;;;;;28.33;11.23;;;;;;;;;;5062901;28;20056;-65
2022/10/22 11:34:18;;;;;;;22.98;10.98;;;;;;;;;;5058536;28;20045;-65
2022/10/22 11:36:45;;;;;;;26.45;9.88;;;;;;;;;;5063569;28;20428;-65
2022/10/22 11:39:33;;;;;;;22.83;9.85;;;;;;;;;;5063640;28;20197;-65
2022/10/22 11:42:01;;;;;;;23.02;10.02;;;;;;;;;;5093294;28;20056;-65
2022/10/22 11:44:29;;;;;;;21.38;9.07;;;;;;;;;;5062613;28;20041;-65
2022/10/22 11:46:58;;;;;;;21.45;8.13;;;;;;;;;;5063558;28;20053;-65
2022/10/22 11:49:26;;;;;;;23.27;9.32;;;;;;;;;;5061568;28;20037;-65
2022/10/22 11:52:05;;;;;;;25.67;9.30;;;;;;;;;;5061249;28;20053;-65
2022/10/22 11:54:41;;;;;;;23.98;10.30;;;;;;;;;;5059024;28;20411;-65
2022/10/22 11:57:14;;;;;;;27.95;10.60;;;;;;;;;;5057855;28;20052;-65
2022/10/22 11:59:48;;;;;;;26.73;10.52;;;;;;;;;;5064231;28;20044;-65
2022/10/22 12:02:22;;;;;;;24.20;10.48;;;;;;;;;;5063398;28;21223;-67
2022/10/22 12:04:48;;;;;;;28.67;10.57;;;;;;;;;;5064333;28;20060;-66
2022/10/22 12:07:31;;;;;;;29.08;10.60;;;;;;;;;;5063767;28;20032;-67
2022/10/22 12:09:57;;;;;;;24.20;10.65;;;;;;;;;;5096299;28;20048;-67
2022/10/22 12:12:23;;;;;;;22.08;9.55;;;;;;;;;;5060588;28;20511;-67
2022/10/22 12:14:52;;;;;;;25.30;9.50;;;;;;;;;;5064045;28;20037;-67
2022/10/22 12:17:20;;;;;;;25.60;8.30;;;;;;;;;;5065514;28;20044;-67
2022/10/22 12:19:49;;;;;;;19.63;6.47;;;;;;;;;;5059335;28;20041;-67
2022/10/22 12:22:17;;;;;;;18.15;5.50;;;;;;;;;;5058287;28;20157;-67
2022/10/22 12:24:46;;;;;;;21.88;5.60;;;;;;;;;;5063881;28;20387;-67
2022/10/22 12:27:20;;;;;;;25.38;6.15;;;;;;;;;;5095864;27;20079;-67
2022/10/22 12:29:47;;;;;;;23.05;4.82;;;;;;;;;;5061122;28;21499;-67
2022/10/22 12:32:15;;;;;;;17.48;4.38;;;;;;;;;;5060277;28;20063;-67
2022/10/22 12:34:48;;;;;;;14.25;3.70;;;;;;;;;;5066813;28;20040;-67
2022/10/22 12:37:15;;;;;;;18.77;3.30;;;;;;;;;;5063634;28;20413;-67
2022/10/22 12:39:41;;;;;;;15.32;3.08;;;;;;;;;;5065140;28;20475;-67
2022/10/22 12:42:12;;;;;;;14.25;3.05;;;;;;;;;;5064941;28;20070;-67
2022/10/22 12:44:38;;;;;;;17.25;3.22;;;;;;;;;;5059340;28;20044;-67
2022/10/22 12:47:06;;;;;;;24.17;3.55;;;;;;;;;;5059348;28;20103;-67
2022/10/22 12:49:38;;;;;;;21.27;4.22;;;;;;;;;;5063405;28;20044;-67
2022/10/22 12:52:05;;;;;;;17.92;3.50;;;;;;;;;;5060340;28;20079;-67
2022/10/22 12:54:32;;;;;;;16.58;4.50;;;;;;;;;;5062971;28;20480;-67
2022/10/22 12:56:59;;;;;;;12.23;3.38;;;;;;;;;;5062612;28;20041;-67
2022/10/22 12:59:27;;;;;;;16.52;4.30;;;;;;;;;;5061967;28;20056;-67
2022/10/22 13:01:54;;;;;;;17.05;3.40;;;;;;;;;;5063242;28;20048;-67
2022/10/22 13:04:22;;;;;;;19.58;3.97;;;;;;;;;;5058465;28;20040;-67
2022/10/22 13:06:50;;;;;;;11.80;2.13;;;;;;;;;;5060795;28;20672;-67
2022/10/22 13:09:21;;;;;;;18.50;3.17;;;;;;;;;;5063307;28;20391;-67
2022/10/22 13:11:50;;;;;;;12.93;2.70;;;;;;;;;;5092900;28;20046;-67
2022/10/22 13:14:17;;;;;;;14.75;2.65;;;;;;;;;;5063114;28;20110;-67
2022/10/22 13:16:43;;;;;;;22.05;2.83;;;;;;;;;;5057429;28;20172;-67
2022/10/22 13:19:32;;;;;;;17.30;2.42;;;;;;;;;;5062890;28;20060;-67
2022/10/22 13:21:58;;;;;;;18.95;3.38;;;;;;;;;;5059138;28;20033;-67
2022/10/22 13:24:24;;;;;;;12.20;2.20;;;;;;;;;;5094414;28;20052;-67
2022/10/22 13:26:52;;;;;;;13.30;2.28;;;;;;;;;;5097148;27;20141;-67
2022/10/22 13:29:20;;;;;;;13.35;2.97;;;;;;;;;;5061734;28;20087;-67
2022/10/22 13:31:47;;;;;;;9.77;2.40;;;;;;;;;;5058360;28;20045;-67
2022/10/22 13:34:16;;;;;;;11.30;1.88;;;;;;;;;;5057174;28;20153;-67
2022/10/22 13:36:42;;;;;;;11.75;2.47;;;;;;;;;;5063513;28;20432;-67
2022/10/22 13:39:19;;;;;;;14.57;2.17;;;;;;;;;;5058975;28;20499;-67
2022/10/22 13:41:45;;;;;;;10.80;1.80;;;;;;;;;;5063082;28;20044;-67
2022/10/22 13:44:11;;;;;;;12.05;2.00;;;;;;;;;;5092707;28;20104;-67
2022/10/22 13:46:41;;;;;;;15.07;2.05;;;;;;;;;;5061015;28;20097;-67
2022/10/22 13:49:12;;;;;;;11.60;1.98;;;;;;;;;;5090653;28;20129;-67
2022/10/22 13:51:38;;;;;;;10.10;1.65;;;;;;;;;;5058536;28;20110;-67
2022/10/22 13:54:09;;;;;;;11.27;1.48;;;;;;;;;;5060019;28;20571;-68
2022/10/22 13:56:35;;;;;;;9.35;2.03;;;;;;;;;;5090518;28;20036;-67
2022/10/22 13:59:01;;;;;;;11.52;2.28;;;;;;;;;;5062332;28;20055;-68
2022/10/22 14:01:27;;;;;;;12.27;1.85;;;;;;;;;;5090382;28;20044;-67
2022/10/22 14:03:56;;;;;;;10.27;1.50;;;;;;;;;;5063089;28;20090;-67
2022/10/22 14:06:23;;;;;;;7.72;1.20;;;;;;;;;;5059324;28;20064;-67
2022/10/22 14:08:53;;;;;;;8.43;1.48;;;;;;;;;;5060924;28;20529;-68
2022/10/22 14:11:19;;;;;;;9.70;1.45;;;;;;;;;;5060273;28;20094;-67
2022/10/22 14:13:46;;;;;;;9.35;1.17;;;;;;;;;;5059043;28;20090;-68
2022/10/22 14:16:16;;;;;;;14.68;1.90;;;;;;;;;;5056023;28;20044;-68
2022/10/22 14:18:42;;;;;;;11.98;2.40;;;;;;;;;;5086018;28;20439;-68
2022/10/22 14:21:08;;;;;;;6.85;1.50;;;;;;;;;;5056348;28;20071;-68
2022/10/22 14:23:35;;;;;;;6.60;1.17;;;;;;;;;;5052600;28;20119;-67
2022/10/22 14:26:02;;;;;;;9.50;1.50;;;;;;;;;;5060129;28;20055;-67
2022/10/22 14:28:28;;;;;;;12.32;1.58;;;;;;;;;;5086945;27;20048;-68
2022/10/22 14:30:54;;;;;;;10.80;2.22;;;;;;;;;;5093032;28;20097;-68